Terminal Aerodrome Forecast
Issued by NWS

Current Version | Previous Version | Text Only | Print | Product List | Glossary Off
Versions: 1 2 3 4 5 6 7 8 9 10 11 12 13 14 15 16 17 18 19

000
FTUS41 KRLX 181720
TAFCKB
TAF
KCKB 181720Z 1818/1918 22009G16KT P6SM SCT200
     FM182200 23008KT P6SM OVC140
     FM190600 24005KT P6SM OVC030
     FM190800 24004KT P6SM OVC015
     FM191700 28006KT P6SM BKN015=

USA.gov is the U.S. government's official web portal to all federal, state and local government web resources and services.